Time;durP1;ratioP1;P1;durP2;ratioP2;P2;SDS_P1;SDS_P2;PMS_P1;PMS_P2;Temp;Humidity;BMP_temperature;BMP_pressure;BME280_temperature;BME280_humidity;BME280_pressure;Samples;Min_cycle;Max_cycle;Signal;HPM_P1;HPM_P2
2023/10/16 00:01:14;;;;;;;3.60;2.40;;;8.10;99.90;;;;;;5002856;28;20017;-92
2023/10/16 00:03:48;;;;;;;3.45;2.17;;;8.10;99.90;;;;;;5038147;28;20029;-92
2023/10/16 00:06:16;;;;;;;2.30;2.10;;;8.10;99.90;;;;;;5068430;28;20020;-94
2023/10/16 00:08:49;;;;;;;3.38;2.05;;;8.10;99.90;;;;;;5021267;28;20083;-92
2023/10/16 00:11:16;;;;;;;3.97;2.00;;;8.00;99.90;;;;;;5037111;28;20052;-91
2023/10/16 00:13:44;;;;;;;4.13;2.15;;;8.00;99.90;;;;;;5036587;28;20028;-92
2023/10/16 00:16:15;;;;;;;5.20;2.28;;;8.00;99.90;;;;;;5041602;28;20025;-95
2023/10/16 00:18:41;;;;;;;2.50;2.05;;;7.90;99.90;;;;;;5021353;28;20025;-92
2023/10/16 00:21:07;;;;;;;3.72;2.28;;;7.90;99.90;;;;;;5039210;28;20033;-92
2023/10/16 00:23:39;;;;;;;4.03;2.40;;;7.90;99.90;;;;;;5011864;28;20032;-92
2023/10/16 00:26:12;;;;;;;3.70;2.10;;;7.90;99.90;;;;;;5016890;28;20029;-91
2023/10/16 00:28:44;;;;;;;3.22;2.33;;;7.90;99.90;;;;;;5041455;28;20025;-93
2023/10/16 00:31:10;;;;;;;5.53;2.95;;;7.90;99.90;;;;;;5040727;28;20060;-94
2023/10/16 00:33:36;;;;;;;3.92;2.35;;;7.90;99.90;;;;;;5022579;28;20074;-91
2023/10/16 00:36:02;;;;;;;2.50;1.90;;;8.00;99.90;;;;;;5036106;28;20125;-92
2023/10/16 00:38:36;;;;;;;3.15;2.13;;;8.00;99.90;;;;;;5036301;28;20022;-93
2023/10/16 00:43:43;;;;;;;6.97;2.75;;;8.00;99.90;;;;;;5057733;28;20033;-92
2023/10/16 00:46:12;;;;;;;3.30;2.03;;;8.10;99.90;;;;;;5057668;28;20051;-93
2023/10/16 00:48:39;;;;;;;4.10;2.58;;;8.10;99.90;;;;;;5039936;28;20421;-93
2023/10/16 00:51:08;;;;;;;5.32;2.20;;;8.20;99.90;;;;;;5039891;28;20043;-93
2023/10/16 00:53:35;;;;;;;3.63;2.60;;;8.20;99.90;;;;;;5062114;28;20476;-92
2023/10/16 00:56:07;;;;;;;3.22;2.60;;;8.20;99.90;;;;;;5060109;28;20033;-91
2023/10/16 00:58:34;;;;;;;3.78;2.60;;;8.20;99.90;;;;;;5059584;28;20021;-92
2023/10/16 01:01:03;;;;;;;4.15;2.58;;;8.30;99.90;;;;;;5044856;28;20029;-93
2023/10/16 01:03:31;;;;;;;4.18;2.25;;;8.30;99.90;;;;;;5023816;28;20039;-93
2023/10/16 01:05:58;;;;;;;3.88;2.50;;;8.30;99.90;;;;;;5039864;28;20025;-92
2023/10/16 01:08:25;;;;;;;6.18;2.67;;;8.30;99.90;;;;;;5039407;28;20442;-92
2023/10/16 01:10:59;;;;;;;3.47;2.17;;;8.30;99.90;;;;;;5040153;28;20060;-93
2023/10/16 01:13:28;;;;;;;3.88;2.50;;;8.30;99.90;;;;;;5040079;28;20028;-92
2023/10/16 01:15:57;;;;;;;4.55;2.28;;;8.30;99.90;;;;;;5062634;28;20089;-92
2023/10/16 01:18:23;;;;;;;3.10;2.08;;;8.30;99.90;;;;;;5061235;28;20020;-92
2023/10/16 01:20:51;;;;;;;5.25;2.88;;;8.30;99.90;;;;;;5056592;28;20012;-92
2023/10/16 01:23:28;;;;;;;3.60;2.55;;;8.30;99.90;;;;;;5062322;28;20021;-90
2023/10/16 01:25:53;;;;;;;4.38;2.33;;;8.30;99.90;;;;;;5045597;28;20113;-94
2023/10/16 01:28:24;;;;;;;3.50;2.00;;;8.30;99.90;;;;;;5072976;28;20465;-92
2023/10/16 01:30:55;;;;;;;3.70;2.60;;;8.30;99.90;;;;;;5057519;28;20082;-92
2023/10/16 01:33:27;;;;;;;3.53;2.42;;;8.30;99.90;;;;;;5039130;28;20031;-93
2023/10/16 01:35:52;;;;;;;;;;;8.30;99.90;;;;;;5039320;28;20396;-92
2023/10/16 01:38:18;;;;;;;4.50;2.60;;;8.30;99.90;;;;;;5056807;28;19905;-94
2023/10/16 01:41:02;;;;;;;4.28;2.58;;;8.20;99.90;;;;;;5022020;28;20040;-94
2023/10/16 01:43:36;;;;;;;4.63;2.10;;;8.20;99.90;;;;;;5038750;28;20024;-91
2023/10/16 01:46:03;;;;;;;3.75;2.55;;;8.20;99.90;;;;;;5042970;28;20112;-94
2023/10/16 01:48:29;;;;;;;3.92;2.53;;;8.20;99.90;;;;;;5038651;28;20021;-91
2023/10/16 01:51:00;;;;;;;3.25;2.22;;;8.20;99.90;;;;;;5021463;28;20397;-91
2023/10/16 01:53:32;;;;;;;;;;;8.10;99.90;;;;;;5039344;28;20064;-92
2023/10/16 01:55:58;;;;;;;3.25;1.75;;;8.10;99.90;;;;;;5038831;28;19912;-91
2023/10/16 01:58:25;;;;;;;4.15;2.47;;;8.10;99.90;;;;;;5056044;28;20032;-92
2023/10/16 02:00:55;;;;;;;4.97;2.22;;;8.10;99.90;;;;;;5056177;28;20040;-93
2023/10/16 02:03:25;;;;;;;4.78;2.50;;;8.10;99.90;;;;;;5039321;28;20032;-92
2023/10/16 02:05:54;;;;;;;4.28;2.13;;;8.20;99.90;;;;;;5056097;28;20028;-94
2023/10/16 02:08:23;;;;;;;2.42;2.00;;;8.20;99.90;;;;;;5049823;28;20134;-94
2023/10/16 02:10:51;;;;;;;4.38;2.30;;;8.20;99.90;;;;;;5037939;28;20056;-92
2023/10/16 02:13:17;;;;;;;4.18;2.38;;;8.20;99.90;;;;;;5022257;28;20036;-93
2023/10/16 02:15:45;;;;;;;4.15;2.17;;;8.20;99.90;;;;;;5037502;28;20025;-92
2023/10/16 02:18:26;;;;;;;3.97;2.40;;;8.20;99.90;;;;;;5037832;28;20017;-92
2023/10/16 02:20:53;;;;;;;;;;;8.20;99.90;;;;;;5050981;28;20024;-93
2023/10/16 02:23:19;;;;;;;4.25;2.35;;;8.20;99.90;;;;;;5049760;28;20336;-92
2023/10/16 02:25:45;;;;;;;2.92;2.30;;;8.20;99.90;;;;;;5037775;28;20074;-92
2023/10/16 02:28:19;;;;;;;3.17;2.10;;;8.20;99.90;;;;;;5037937;28;20013;-93
2023/10/16 02:30:49;;;;;;;3.33;1.90;;;8.20;99.90;;;;;;5057104;28;20036;-92
2023/10/16 02:35:48;;;;;;;6.45;2.30;;;8.40;99.90;;;;;;5060627;28;20036;-92
2023/10/16 02:38:29;;;;;;;5.55;2.13;;;8.40;99.90;;;;;;5038177;28;20021;-94
2023/10/16 02:41:07;;;;;;;6.45;2.30;;;8.40;99.90;;;;;;5055659;28;20056;-91
2023/10/16 02:43:37;;;;;;;2.67;1.95;;;8.50;99.90;;;;;;5038595;28;20032;-92
2023/10/16 02:46:09;;;;;;;2.58;2.25;;;8.50;99.90;;;;;;5045179;28;20032;-93
2023/10/16 02:48:35;;;;;;;3.67;2.35;;;8.50;99.90;;;;;;5061099;28;20036;-89
2023/10/16 02:51:02;;;;;;;3.17;1.80;;;8.50;99.90;;;;;;5078661;28;20009;-92
2023/10/16 02:53:30;;;;;;;4.68;2.35;;;8.50;99.90;;;;;;5060998;28;20064;-91
2023/10/16 02:56:05;;;;;;;3.75;2.00;;;8.50;99.90;;;;;;5042098;28;20033;-92
2023/10/16 02:58:31;;;;;;;3.90;2.05;;;8.50;99.90;;;;;;5018357;28;20112;-90
2023/10/16 03:00:59;;;;;;;2.88;1.95;;;8.50;99.90;;;;;;5018185;28;20044;-91
2023/10/16 03:03:28;;;;;;;2.65;2.08;;;8.60;99.90;;;;;;5053028;28;20120;-91
2023/10/16 03:05:55;;;;;;;3.08;2.20;;;8.60;99.90;;;;;;5037896;28;20068;-93
2023/10/16 03:08:22;;;;;;;3.97;2.00;;;8.70;99.90;;;;;;5049980;28;20500;-91
2023/10/16 03:10:51;;;;;;;3.88;2.15;;;8.70;99.90;;;;;;5037393;28;20086;-92
2023/10/16 03:13:18;;;;;;;2.88;2.13;;;8.70;99.90;;;;;;5021358;28;20033;-92
2023/10/16 03:15:46;;;;;;;3.58;2.35;;;8.70;99.90;;;;;;5054651;28;20021;-90
2023/10/16 03:18:17;;;;;;;5.90;2.22;;;8.70;99.90;;;;;;5037454;28;20052;-91
2023/10/16 03:20:46;;;;;;;;;;;8.80;99.90;;;;;;5033119;28;20480;-92
2023/10/16 03:23:14;;;;;;;5.65;2.80;;;8.80;99.90;;;;;;5035994;28;19913;-93
2023/10/16 03:25:51;;;;;;;5.20;2.33;;;8.80;99.90;;;;;;5054667;28;20170;-91
2023/10/16 03:28:22;;;;;;;3.95;2.30;;;8.70;99.90;;;;;;5037139;28;20033;-92
2023/10/16 03:30:51;;;;;;;3.50;1.83;;;8.80;99.90;;;;;;5021146;28;20472;-91
2023/10/16 03:33:20;;;;;;;3.30;2.20;;;8.70;99.90;;;;;;5037859;28;20036;-91
2023/10/16 03:35:49;;;;;;;4.72;2.47;;;8.70;99.90;;;;;;5054425;28;20032;-92
2023/10/16 03:38:24;;;;;;;3.80;2.30;;;8.70;99.90;;;;;;5031083;28;20055;-92
2023/10/16 03:40:55;;;;;;;3.15;2.50;;;8.70;99.90;;;;;;5056759;28;20052;-92
2023/10/16 03:43:22;;;;;;;3.28;2.40;;;8.70;99.90;;;;;;5070587;28;20025;-91
2023/10/16 03:45:49;;;;;;;3.65;2.42;;;8.70;99.90;;;;;;5020331;28;20029;-91
2023/10/16 03:48:17;;;;;;;4.00;2.13;;;8.70;99.90;;;;;;5036722;28;20396;-92
2023/10/16 03:50:43;;;;;;;4.32;2.28;;;8.70;99.90;;;;;;5036217;28;20057;-92
2023/10/16 03:53:13;;;;;;;3.17;2.60;;;8.80;99.90;;;;;;5016454;28;20044;-93
2023/10/16 03:55:49;;;;;;;3.95;2.30;;;8.80;99.90;;;;;;5057021;28;20037;-92
2023/10/16 03:58:16;;;;;;;3.90;2.28;;;8.80;99.90;;;;;;5030607;28;20040;-92
2023/10/16 04:00:56;;;;;;;3.28;2.20;;;8.90;99.90;;;;;;5036613;28;20429;-91
2023/10/16 04:03:26;;;;;;;4.05;2.50;;;8.90;99.90;;;;;;5037040;28;20021;-92
2023/10/16 04:05:53;;;;;;;4.65;2.28;;;8.90;99.90;;;;;;5020368;28;20078;-90
2023/10/16 04:08:22;;;;;;;3.13;1.98;;;8.90;99.90;;;;;;5038116;28;20068;-92
2023/10/16 04:10:48;;;;;;;3.42;2.13;;;9.00;99.90;;;;;;5046205;28;20017;-92
2023/10/16 04:13:26;;;;;;;3.42;2.03;;;8.90;99.90;;;;;;5065437;28;20457;-91
2023/10/16 04:18:33;;;;;;;6.03;2.25;;;8.90;99.90;;;;;;5062029;28;20068;-95
2023/10/16 04:26:47;;;;;;;4.53;2.05;;;8.90;99.90;;;;;;5065682;28;20064;-94
2023/10/16 04:31:57;;;;;;;4.50;2.35;;;8.90;99.90;;;;;;5057714;28;20116;-92
2023/10/16 04:34:31;;;;;;;2.10;1.90;;;9.00;99.90;;;;;;5077071;28;20033;-89
2023/10/16 04:50:37;;;;;;;4.55;2.33;;;9.20;99.90;;;;;;5063894;28;20504;-90
2023/10/16 04:53:14;;;;;;;3.70;2.10;;;9.20;99.90;;;;;;5052500;28;20090;-89
2023/10/16 05:13:54;;;;;;;3.47;2.30;;;9.40;99.90;;;;;;5039559;28;20037;-89
2023/10/16 05:16:47;;;;;;;6.28;2.30;;;9.40;99.90;;;;;;5023321;28;20029;-89
2023/10/16 05:19:30;;;;;;;3.72;2.10;;;9.40;99.90;;;;;;5030581;28;20025;-88
2023/10/16 06:14:20;;;;;;;4.10;2.60;;;9.50;99.90;;;;;;5054348;28;20405;-88
2023/10/16 06:16:48;;;;;;;5.57;2.80;;;9.50;99.90;;;;;;5032477;28;20025;-88
2023/10/16 06:19:15;;;;;;;3.85;2.33;;;9.50;99.90;;;;;;5059756;28;20032;-89
2023/10/16 06:22:06;;;;;;;3.03;2.38;;;9.50;99.90;;;;;;5038093;28;20025;-87
2023/10/16 06:24:47;;;;;;;;;;;9.50;99.90;;;;;;5039522;28;20105;-89
2023/10/16 06:27:19;;;;;;;5.05;2.88;;;9.50;99.90;;;;;;5037602;28;19920;-88
2023/10/16 06:29:53;;;;;;;3.90;2.70;;;9.50;99.90;;;;;;5037213;28;20498;-88
2023/10/16 06:32:25;;;;;;;4.25;2.60;;;9.50;99.90;;;;;;5033483;28;20031;-88
2023/10/16 06:35:00;;;;;;;3.72;2.30;;;9.60;99.90;;;;;;5001974;28;20392;-88
2023/10/16 06:37:31;;;;;;;5.38;2.53;;;9.60;99.90;;;;;;5018238;28;20078;-88
2023/10/16 06:40:01;;;;;;;5.37;2.83;;;9.60;99.90;;;;;;5037993;28;20457;-88
2023/10/16 06:42:32;;;;;;;5.05;2.78;;;9.60;99.90;;;;;;5021830;28;20119;-88
2023/10/16 06:45:06;;;;;;;4.38;2.70;;;9.70;99.90;;;;;;5004344;28;20037;-88
2023/10/16 06:47:47;;;;;;;5.22;2.83;;;9.70;99.90;;;;;;5022601;28;20021;-89
2023/10/16 06:53:00;;;;;;;3.78;2.80;;;9.70;99.90;;;;;;5021955;28;20061;-88
2023/10/16 06:55:26;;;;;;;3.42;2.35;;;9.70;99.90;;;;;;5037580;28;20044;-89
2023/10/16 06:57:52;;;;;;;5.80;2.72;;;9.70;99.90;;;;;;5021141;28;20029;-89
2023/10/16 07:00:26;;;;;;;4.50;2.88;;;9.70;99.90;;;;;;5037371;28;20029;-88
2023/10/16 07:02:57;;;;;;;4.45;2.20;;;9.70;99.90;;;;;;5037291;28;20041;-88
2023/10/16 07:05:23;;;;;;;4.45;2.70;;;9.70;99.90;;;;;;5037427;28;20025;-87
2023/10/16 07:07:49;;;;;;;4.22;2.83;;;9.80;99.90;;;;;;5037632;28;20021;-88
2023/10/16 07:10:15;;;;;;;3.97;2.63;;;9.80;99.90;;;;;;5056995;28;20513;-89
2023/10/16 07:12:59;;;;;;;3.88;2.72;;;9.80;99.90;;;;;;5038508;28;20113;-88
2023/10/16 07:15:29;;;;;;;3.72;2.58;;;9.80;99.90;;;;;;5016324;28;20132;-89
2023/10/16 07:17:55;;;;;;;4.07;2.72;;;9.80;99.90;;;;;;5041720;28;20075;-88
2023/10/16 07:20:30;;;;;;;3.85;2.55;;;9.90;99.90;;;;;;5057471;28;20060;-87
2023/10/16 07:22:59;;;;;;;5.43;2.67;;;9.90;99.90;;;;;;5045663;28;20059;-87
2023/10/16 07:25:29;;;;;;;4.18;2.83;;;9.90;99.90;;;;;;5078915;28;20028;-88
2023/10/16 07:27:58;;;;;;;6.60;2.80;;;10.00;99.90;;;;;;5064346;28;20036;-88
2023/10/16 07:30:27;;;;;;;3.85;2.55;;;10.00;99.90;;;;;;5003429;28;20030;-89
2023/10/16 07:32:54;;;;;;;4.75;3.03;;;10.00;99.90;;;;;;5034297;28;20033;-88
2023/10/16 07:35:23;;;;;;;7.45;3.03;;;10.10;99.90;;;;;;5006557;28;20091;-88
2023/10/16 07:37:49;;;;;;;4.35;2.75;;;10.10;99.90;;;;;;5053787;28;20028;-88
2023/10/16 07:40:15;;;;;;;3.60;2.33;;;10.20;99.90;;;;;;5036560;28;20059;-88
2023/10/16 07:42:46;;;;;;;4.45;2.80;;;10.20;99.90;;;;;;5037030;28;20025;-89
2023/10/16 07:45:12;;;;;;;4.45;3.05;;;10.20;99.90;;;;;;5036592;28;20032;-88
2023/10/16 07:47:38;;;;;;;5.00;3.50;;;10.30;99.90;;;;;;5036822;28;20017;-87
2023/10/16 07:50:04;;;;;;;4.22;2.90;;;10.30;99.90;;;;;;5032820;28;20445;-88
2023/10/16 07:52:33;;;;;;;7.80;3.38;;;10.30;99.90;;;;;;5017962;28;20378;-89
2023/10/16 07:55:01;;;;;;;4.82;2.85;;;10.30;99.90;;;;;;5014954;28;20041;-90
2023/10/16 07:57:27;;;;;;;4.85;3.08;;;10.30;99.90;;;;;;5036893;28;20055;-89
2023/10/16 07:59:56;;;;;;;3.55;2.63;;;10.40;99.90;;;;;;5044415;28;20033;-89
2023/10/16 08:02:21;;;;;;;4.90;3.22;;;10.40;99.90;;;;;;5020217;28;20035;-90
2023/10/16 08:04:53;;;;;;;4.28;2.90;;;10.50;99.90;;;;;;5036454;28;20400;-89
2023/10/16 08:07:19;;;;;;;6.03;3.22;;;10.50;99.90;;;;;;5035865;28;20059;-89
2023/10/16 08:09:57;;;;;;;5.00;2.95;;;10.60;99.90;;;;;;5054325;28;20128;-89
2023/10/16 08:12:35;;;;;;;4.07;2.95;;;10.60;99.90;;;;;;5038366;28;20029;-88
2023/10/16 08:15:09;;;;;;;6.57;3.67;;;10.70;99.90;;;;;;5021397;28;20033;-89
2023/10/16 08:17:36;;;;;;;4.53;3.45;;;10.70;99.90;;;;;;5054008;28;20025;-88
2023/10/16 08:20:07;;;;;;;6.55;3.40;;;10.80;99.90;;;;;;5036321;28;20025;-88
2023/10/16 08:22:33;;;;;;;6.45;3.90;;;10.80;99.90;;;;;;5020486;28;20057;-88
2023/10/16 08:25:01;;;;;;;4.93;3.10;;;10.90;99.90;;;;;;5036512;28;20071;-89
2023/10/16 08:27:49;;;;;;;5.57;3.13;;;10.90;99.90;;;;;;5058720;28;20025;-88
2023/10/16 08:30:18;;;;;;;4.97;3.33;;;11.00;99.90;;;;;;5052507;28;20029;-89
2023/10/16 08:35:17;;;;;;;4.25;2.50;;;11.10;99.90;;;;;;5036704;28;20098;-89
2023/10/16 08:37:43;;;;;;;6.95;3.28;;;11.10;99.90;;;;;;5061701;28;20108;-88
2023/10/16 08:40:24;;;;;;;5.07;3.00;;;11.20;99.90;;;;;;5039203;28;20102;-89
2023/10/16 08:43:04;;;;;;;4.90;2.67;;;11.20;99.90;;;;;;5048372;28;20028;-87
2023/10/16 08:45:32;;;;;;;4.47;3.33;;;11.30;99.90;;;;;;5021102;28;20424;-88
2023/10/16 08:48:05;;;;;;;4.25;2.92;;;11.30;99.90;;;;;;5004151;28;20039;-87
2023/10/16 08:50:42;;;;;;;5.53;2.90;;;11.40;99.90;;;;;;5036679;28;20044;-88
2023/10/16 08:53:30;;;;;;;4.45;2.75;;;11.50;99.90;;;;;;5050362;28;20087;-88
2023/10/16 08:56:03;;;;;;;5.10;2.80;;;11.50;99.90;;;;;;5059810;28;20028;-88
2023/10/16 08:58:38;;;;;;;4.40;3.00;;;11.50;99.90;;;;;;5077146;28;20059;-88
2023/10/16 09:01:09;;;;;;;5.13;2.90;;;11.60;99.90;;;;;;5061083;28;20021;-87
2023/10/16 09:04:05;;;;;;;6.80;2.80;;;11.60;99.90;;;;;;5044900;28;20049;-89
2023/10/16 09:06:37;;;;;;;3.80;2.63;;;11.70;99.90;;;;;;5039975;28;20043;-88
2023/10/16 09:09:13;;;;;;;3.80;2.50;;;11.80;99.90;;;;;;5023548;28;20051;-90
2023/10/16 09:11:39;;;;;;;2.85;2.58;;;11.80;99.90;;;;;;5057063;28;20021;-89
2023/10/16 09:14:09;;;;;;;4.43;3.30;;;11.80;99.90;;;;;;5039291;28;20036;-89
2023/10/16 09:16:35;;;;;;;3.63;2.63;;;11.90;99.90;;;;;;5043939;28;20029;-88
2023/10/16 09:19:06;;;;;;;3.25;2.72;;;12.00;99.90;;;;;;5042947;28;20028;-88
2023/10/16 09:21:38;;;;;;;5.40;2.67;;;12.10;99.90;;;;;;5043235;28;20028;-88
2023/10/16 09:24:05;;;;;;;7.45;2.63;;;12.10;99.90;;;;;;5033055;28;20029;-88
2023/10/16 09:26:38;;;;;;;4.88;2.88;;;12.20;99.90;;;;;;5022533;28;20040;-88
2023/10/16 09:29:14;;;;;;;4.80;2.40;;;12.20;99.90;;;;;;5022511;28;20016;-90
2023/10/16 09:32:06;;;;;;;4.50;2.38;;;12.30;99.90;;;;;;5019029;28;20486;-88
2023/10/16 09:34:36;;;;;;;3.80;2.50;;;12.40;99.90;;;;;;5036698;28;20085;-89
2023/10/16 09:37:16;;;;;;;3.20;2.50;;;12.50;99.90;;;;;;5058444;28;20051;-89
2023/10/16 09:39:49;;;;;;;5.55;2.40;;;12.50;99.90;;;;;;5058523;28;20055;-88
2023/10/16 09:42:15;;;;;;;4.70;2.17;;;12.60;99.90;;;;;;5063323;28;20013;-89
2023/10/16 09:44:56;;;;;;;3.40;1.67;;;12.70;99.90;;;;;;5056263;28;20029;-89
2023/10/16 09:47:27;;;;;;;2.35;1.52;;;12.70;99.90;;;;;;5036021;28;20033;-89
2023/10/16 09:50:00;;;;;;;4.35;2.17;;;12.80;99.90;;;;;;5058770;28;20025;-88
2023/10/16 09:52:33;;;;;;;2.13;1.70;;;12.80;99.90;;;;;;5038382;28;20025;-89
2023/10/16 09:54:59;;;;;;;4.93;2.30;;;12.80;99.90;;;;;;5038900;28;20027;-89
2023/10/16 09:57:30;;;;;;;2.67;1.80;;;12.90;99.90;;;;;;5055940;28;20029;-88
2023/10/16 10:00:16;;;;;;;3.47;1.65;;;12.90;99.90;;;;;;5038715;28;20021;-88
2023/10/16 10:02:43;;;;;;;4.57;1.83;;;12.90;99.90;;;;;;5024418;28;20028;-88
2023/10/16 10:05:09;;;;;;;2.60;1.42;;;13.00;99.90;;;;;;5038385;28;20029;-89
2023/10/16 10:07:46;;;;;;;2.85;1.48;;;13.00;99.90;;;;;;5025899;28;20457;-88
2023/10/16 10:13:16;;;;;;;3.78;1.70;;;13.10;99.90;;;;;;4996216;28;20043;-88
2023/10/16 10:15:48;;;;;;;3.20;1.35;;;13.10;99.90;;;;;;5038606;28;20028;-88
2023/10/16 10:18:31;;;;;;;4.07;1.83;;;13.10;99.90;;;;;;5038360;28;20087;-88
2023/10/16 10:21:02;;;;;;;3.58;1.70;;;13.20;99.90;;;;;;5039051;28;20028;-88
2023/10/16 10:23:32;;;;;;;;;;;13.20;99.90;;;;;;5042727;28;20025;-89
2023/10/16 10:26:02;;;;;;;3.88;1.60;;;13.20;99.90;;;;;;5049002;28;19952;-88
2023/10/16 10:28:38;;;;;;;2.55;1.42;;;13.30;99.90;;;;;;5039817;28;20048;-87
2023/10/16 10:31:05;;;;;;;2.47;1.30;;;13.40;99.90;;;;;;5046912;28;20022;-89
2023/10/16 10:33:42;;;;;;;4.05;1.38;;;13.40;99.90;;;;;;5064974;28;20104;-87
2023/10/16 10:36:30;;;;;;;2.15;1.02;;;13.40;99.90;;;;;;5061323;28;20025;-87
2023/10/16 10:39:43;;;;;;;2.28;0.95;;;13.40;99.90;;;;;;5041158;28;20034;-89
2023/10/16 10:42:24;;;;;;;4.40;1.48;;;13.50;99.90;;;;;;5032803;28;20037;-88
2023/10/16 10:44:54;;;;;;;;;;;13.50;99.90;;;;;;5036623;28;20484;-89
2023/10/16 10:47:21;;;;;;;1.65;0.90;;;13.60;99.90;;;;;;5055158;28;19911;-88
2023/10/16 10:49:49;;;;;;;2.03;0.90;;;13.60;99.90;;;;;;5048258;28;20052;-88
2023/10/16 10:52:18;;;;;;;1.75;0.93;;;13.60;99.90;;;;;;5037839;28;20384;-89
2023/10/16 10:54:48;;;;;;;1.45;0.85;;;13.70;99.90;;;;;;5033726;28;20116;-89
2023/10/16 10:57:19;;;;;;;2.33;0.77;;;13.70;99.90;;;;;;4994921;28;20061;-90
2023/10/16 10:59:55;;;;;;;1.45;0.60;;;13.70;99.90;;;;;;4994705;28;20044;-88
2023/10/16 11:05:07;;;;;;;1.95;0.93;;;13.80;99.90;;;;;;5035156;28;20121;-88
2023/10/16 11:07:45;;;;;;;2.45;0.82;;;13.80;99.90;;;;;;5017297;28;20549;-88
2023/10/16 11:10:15;;;;;;;1.73;0.60;;;13.80;99.90;;;;;;5003057;28;20029;-89
2023/10/16 11:12:44;;;;;;;1.92;0.70;;;13.80;99.90;;;;;;5001512;28;20018;-88
2023/10/16 11:15:19;;;;;;;1.80;0.63;;;13.80;99.90;;;;;;4998875;28;20136;-89
2023/10/16 11:17:46;;;;;;;2.50;0.80;;;13.90;99.90;;;;;;5015253;28;20025;-88
2023/10/16 11:22:44;;;;;;;1.30;0.60;;;14.00;99.90;;;;;;5034782;28;20029;-89
2023/10/16 11:25:13;;;;;;;1.75;0.85;;;14.00;99.90;;;;;;5016046;28;20096;-88
2023/10/16 11:27:43;;;;;;;3.17;0.70;;;14.00;99.90;;;;;;5010138;28;20065;-88
2023/10/16 11:30:18;;;;;;;2.33;0.82;;;14.00;99.90;;;;;;4994262;28;20037;-88
2023/10/16 11:32:46;;;;;;;2.25;1.00;;;14.00;99.90;;;;;;4980035;28;20477;-89
2023/10/16 11:35:19;;;;;;;1.90;0.65;;;14.00;99.90;;;;;;5014071;28;20036;-88
2023/10/16 11:40:48;;;;;;;1.75;0.45;;;14.10;99.90;;;;;;4980154;28;20466;-89
2023/10/16 11:43:19;;;;;;;1.58;0.68;;;14.10;99.90;;;;;;5031726;28;20013;-88
2023/10/16 11:45:45;;;;;;;1.52;1.00;;;14.10;99.90;;;;;;5007708;28;20041;-88
2023/10/16 11:51:08;;;;;;;2.65;0.73;;;14.10;99.90;;;;;;4995103;28;20034;-89
2023/10/16 11:53:37;;;;;;;2.03;0.65;;;14.10;99.90;;;;;;5020000;28;20077;-88
2023/10/16 11:56:03;;;;;;;2.40;0.80;;;14.20;99.90;;;;;;5019170;28;20042;-88
2023/10/16 11:58:32;;;;;;;2.13;0.70;;;14.20;99.90;;;;;;5014863;28;20033;-89
2023/10/16 12:01:08;;;;;;;1.30;0.93;;;14.20;99.90;;;;;;5013667;28;20057;-88
2023/10/16 12:03:37;;;;;;;1.23;0.65;;;14.20;99.90;;;;;;5028770;28;20026;-88
2023/10/16 12:06:07;;;;;;;1.23;0.60;;;14.20;99.90;;;;;;5034106;28;20172;-87
2023/10/16 12:08:33;;;;;;;3.47;0.43;;;14.30;99.90;;;;;;5029557;28;20034;-88
2023/10/16 12:11:01;;;;;;;2.80;0.70;;;14.30;99.80;;;;;;5018925;28;20029;-88
2023/10/16 12:13:30;;;;;;;2.08;0.70;;;14.30;99.60;;;;;;5037654;28;20014;-89
2023/10/16 12:15:57;;;;;;;2.15;0.50;;;14.30;99.40;;;;;;5036819;28;20029;-88
2023/10/16 12:18:27;;;;;;;1.70;0.57;;;14.30;99.40;;;;;;5035907;28;20010;-89
2023/10/16 12:20:53;;;;;;;1.70;0.70;;;14.30;99.20;;;;;;5033021;28;20022;-89
2023/10/16 12:23:22;;;;;;;1.25;0.70;;;14.30;99.20;;;;;;5022989;28;20049;-89
2023/10/16 12:25:49;;;;;;;0.93;0.50;;;14.40;99.20;;;;;;5013712;28;20083;-88
2023/10/16 12:28:15;;;;;;;4.72;0.80;;;14.40;99.00;;;;;;5014620;28;20033;-88
2023/10/16 12:30:40;;;;;;;2.80;0.77;;;14.40;98.70;;;;;;5033105;28;20030;-88
2023/10/16 12:33:07;;;;;;;1.67;0.70;;;14.40;98.50;;;;;;5033207;28;20097;-88
2023/10/16 12:35:35;;;;;;;3.08;0.60;;;14.30;98.40;;;;;;5014541;28;20390;-89
2023/10/16 12:38:04;;;;;;;2.20;0.70;;;14.40;98.50;;;;;;5016852;28;20462;-88
2023/10/16 12:40:34;;;;;;;2.88;0.70;;;14.40;98.40;;;;;;5016273;28;20018;-88
2023/10/16 12:43:00;;;;;;;1.88;0.50;;;14.30;98.70;;;;;;5017464;28;20134;-89
2023/10/16 12:45:27;;;;;;;1.38;0.57;;;14.40;98.60;;;;;;5015231;28;20049;-89
2023/10/16 12:47:54;;;;;;;1.65;0.55;;;14.40;98.80;;;;;;5017608;28;20022;-88
2023/10/16 12:50:25;;;;;;;1.42;0.60;;;14.40;98.90;;;;;;5016703;28;20476;-88
2023/10/16 12:52:55;;;;;;;1.33;0.38;;;14.40;99.10;;;;;;5002533;28;20022;-89
2023/10/16 12:55:22;;;;;;;2.75;0.60;;;14.40;98.80;;;;;;5052848;28;20044;-89
2023/10/16 12:57:49;;;;;;;1.42;0.60;;;14.40;98.70;;;;;;5055620;28;20021;-88
2023/10/16 13:00:20;;;;;;;3.40;0.50;;;14.40;98.60;;;;;;5047942;28;20461;-88
2023/10/16 13:02:48;;;;;;;2.80;0.40;;;14.30;98.60;;;;;;5041416;28;20056;-88
2023/10/16 13:05:15;;;;;;;1.83;0.50;;;14.30;98.80;;;;;;5039764;28;20052;-89
2023/10/16 13:07:47;;;;;;;2.42;0.63;;;14.40;98.90;;;;;;5032703;28;20033;-88
2023/10/16 13:10:16;;;;;;;3.70;0.57;;;14.40;98.80;;;;;;5054574;28;20025;-88
2023/10/16 13:12:43;;;;;;;2.05;0.77;;;14.40;99.00;;;;;;5077269;28;20059;-88
2023/10/16 13:15:14;;;;;;;2.50;0.43;;;14.50;98.70;;;;;;5062172;28;20124;-88
2023/10/16 13:17:40;;;;;;;2.03;0.70;;;14.50;98.50;;;;;;5039341;28;20523;-88
2023/10/16 13:20:17;;;;;;;2.47;0.50;;;14.50;98.20;;;;;;5031562;28;20013;-88
2023/10/16 13:22:58;;;;;;;3.03;0.93;;;14.50;97.90;;;;;;5019673;28;20032;-89
2023/10/16 13:25:35;;;;;;;;;;;14.50;98.00;;;;;;5049910;28;20094;-89
2023/10/16 13:28:03;;;;;;;0.90;0.50;;;14.50;98.20;;;;;;5062702;28;19904;-88
2023/10/16 13:30:31;;;;;;;2.28;0.70;;;14.50;98.20;;;;;;5022884;28;20025;-89
2023/10/16 13:33:00;;;;;;;4.63;1.17;;;14.50;98.00;;;;;;5039048;28;20462;-89
2023/10/16 13:35:26;;;;;;;2.85;0.65;;;14.50;97.90;;;;;;5023247;28;20040;-89
2023/10/16 13:37:52;;;;;;;4.10;1.13;;;14.50;98.00;;;;;;5039617;28;20040;-89
2023/10/16 13:40:22;;;;;;;3.80;0.73;;;14.50;98.30;;;;;;5059533;28;20056;-89
2023/10/16 13:42:49;;;;;;;1.75;0.60;;;14.50;98.50;;;;;;5045821;28;20033;-88
2023/10/16 13:45:16;;;;;;;1.73;0.50;;;14.50;98.30;;;;;;5039531;28;20021;-88
2023/10/16 13:47:43;;;;;;;2.20;0.70;;;14.50;98.10;;;;;;5022415;28;20025;-88
2023/10/16 13:50:16;;;;;;;1.83;0.55;;;14.60;98.00;;;;;;5033291;28;20048;-87
2023/10/16 13:52:46;;;;;;;1.83;0.50;;;14.50;98.00;;;;;;5062784;28;20010;-89
2023/10/16 13:55:14;;;;;;;1.52;0.70;;;14.50;97.80;;;;;;5063173;28;20039;-88
2023/10/16 13:57:47;;;;;;;2.50;0.50;;;14.50;97.70;;;;;;5085940;28;20080;-89
2023/10/16 14:00:31;;;;;;;1.48;0.50;;;14.50;98.10;;;;;;5052863;28;20029;-89
2023/10/16 14:03:06;;;;;;;2.13;0.70;;;14.50;98.40;;;;;;5043231;28;20025;-88
2023/10/16 14:05:52;;;;;;;2.67;0.47;;;14.50;98.60;;;;;;5023201;28;20029;-87
2023/10/16 14:08:26;;;;;;;2.17;0.63;;;14.50;98.70;;;;;;5054877;28;20142;-88
2023/10/16 14:10:57;;;;;;;4.68;0.88;;;14.50;98.70;;;;;;5043773;28;20017;-88
2023/10/16 14:13:27;;;;;;;4.07;0.57;;;14.50;98.70;;;;;;5038844;28;20032;-88
2023/10/16 14:15:58;;;;;;;2.08;0.70;;;14.50;98.50;;;;;;5055518;28;20033;-88
2023/10/16 14:18:26;;;;;;;3.20;0.90;;;14.50;98.50;;;;;;5038578;28;20032;-89
2023/10/16 14:20:56;;;;;;;3.85;0.60;;;14.50;98.70;;;;;;5021736;28;20028;-88
2023/10/16 14:23:32;;;;;;;3.57;0.80;;;14.50;98.70;;;;;;5021728;28;20135;-88
2023/10/16 14:25:58;;;;;;;2.90;0.80;;;14.60;98.60;;;;;;5022779;28;20275;-89
2023/10/16 14:28:29;;;;;;;2.58;0.68;;;14.50;98.60;;;;;;5038265;28;20468;-88
2023/10/16 14:30:56;;;;;;;1.48;0.50;;;14.50;98.60;;;;;;5055641;28;20026;-88
2023/10/16 14:33:28;;;;;;;1.90;0.65;;;14.50;98.70;;;;;;5037859;28;20029;-89
2023/10/16 14:35:56;;;;;;;3.50;0.77;;;14.50;99.00;;;;;;5037445;28;20074;-89
2023/10/16 14:38:22;;;;;;;3.47;0.73;;;14.60;99.20;;;;;;5033105;28;20102;-93
2023/10/16 14:40:48;;;;;;;1.27;0.50;;;14.50;99.20;;;;;;5041751;28;20041;-88
2023/10/16 14:43:17;;;;;;;1.52;0.50;;;14.50;98.90;;;;;;5034866;28;20025;-89
2023/10/16 14:45:47;;;;;;;2.05;0.63;;;14.50;98.70;;;;;;5052669;28;20020;-89
2023/10/16 14:48:16;;;;;;;2.53;0.50;;;14.50;98.90;;;;;;5053762;28;20032;-88
2023/10/16 14:50:44;;;;;;;1.60;0.65;;;14.50;98.90;;;;;;5037193;28;20052;-90
2023/10/16 14:53:11;;;;;;;1.73;0.70;;;14.50;98.70;;;;;;5054340;28;20023;-88
2023/10/16 14:55:37;;;;;;;1.77;0.88;;;14.50;98.80;;;;;;5036929;28;20029;-88
2023/10/16 14:58:03;;;;;;;1.73;0.63;;;14.50;99.00;;;;;;5052490;28;20048;-88
2023/10/16 15:00:41;;;;;;;4.07;1.00;;;14.50;98.90;;;;;;5037437;28;20051;-89
2023/10/16 15:03:13;;;;;;;3.30;0.80;;;14.50;98.70;;;;;;5035877;28;20017;-89
2023/10/16 15:05:41;;;;;;;1.42;0.75;;;14.50;98.50;;;;;;5053965;28;20025;-88
2023/10/16 15:08:13;;;;;;;2.30;0.68;;;14.50;98.20;;;;;;5036712;28;20028;-89
2023/10/16 15:10:43;;;;;;;3.08;0.70;;;14.50;98.00;;;;;;5021841;28;20029;-90